Time;durP1;ratioP1;P1;durP2;ratioP2;P2;SDS_P1;SDS_P2;PMS_P1;PMS_P2;Temp;Humidity;BMP_temperature;BMP_pressure;BME280_temperature;BME280_humidity;BME280_pressure;Samples;Min_cycle;Max_cycle;Signal;HPM_P1;HPM_P2
2021/03/15 00:03:26;;;;;;;18.93;9.67;;;;;;;-2.27;77.80;98609.70;509387;1102;116133;-62
2021/03/15 00:13:36;;;;;;;17.67;11.57;;;;;;;-2.38;77.66;98616.03;510409;1102;114551;-61
2021/03/15 00:23:39;;;;;;;20.45;13.25;;;;;;;-2.48;78.21;98631.70;513639;1101;114573;-61
2021/03/15 00:33:42;;;;;;;30.53;16.87;;;;;;;-2.63;77.97;98624.39;510654;1101;114428;-61
2021/03/15 00:43:54;;;;;;;26.83;14.77;;;;;;;-2.77;78.65;98627.30;510690;1102;114383;-62
2021/03/15 00:53:57;;;;;;;28.90;15.77;;;;;;;-2.89;78.90;98629.30;510818;1101;115104;-61
2021/03/15 01:04:00;;;;;;;28.90;19.10;;;;;;;-2.93;79.16;98634.55;510889;1102;115286;-61
2021/03/15 01:14:16;;;;;;;33.67;20.00;;;;;;;-2.91;79.60;98619.93;510940;1102;114551;-60
2021/03/15 01:24:20;;;;;;;36.80;19.50;;;;;;;-2.92;79.29;98615.67;510426;1102;115301;-65
2021/03/15 01:34:26;;;;;;;33.03;19.13;;;;;;;-3.03;79.32;98603.94;510779;1102;115098;-61
2021/03/15 01:44:40;;;;;;;34.67;18.50;;;;;;;-3.17;79.91;98600.87;510798;1102;114951;-63
2021/03/15 01:54:45;;;;;;;31.20;17.87;;;;;;;-3.28;79.28;98611.41;510865;1101;114767;-61
2021/03/15 02:04:51;;;;;;;29.37;18.30;;;;;;;-3.33;79.53;98615.78;510872;1102;115048;-61
2021/03/15 02:15:13;;;;;;;31.33;19.93;;;;;;;-3.30;80.08;98616.56;509177;1102;115954;-63
2021/03/15 02:26:03;;;;;;;26.83;18.30;;;;;;;-2.80;80.80;98614.55;510912;1101;115100;-60
2021/03/15 02:36:09;;;;;;;25.23;16.17;;;;;;;-2.34;80.94;98607.34;509988;1102;115524;-61
2021/03/15 02:46:16;;;;;;;27.75;17.40;;;;;;;-1.84;81.41;98609.38;510043;1102;115447;-61
2021/03/15 02:56:23;;;;;;;25.57;18.00;;;;;;;-1.39;81.93;98614.94;510678;1101;115018;-61
2021/03/15 03:06:29;;;;;;;32.50;17.10;;;;;;;-1.08;81.37;98625.11;510577;1102;114525;-61
2021/03/15 03:16:40;;;;;;;26.87;17.53;;;;;;;-0.83;81.29;98623.48;509820;1102;114709;-61
2021/03/15 03:26:45;;;;;;;23.30;16.05;;;;;;;-0.60;81.22;98623.56;509109;1102;114299;-61
2021/03/15 03:36:48;;;;;;;25.57;16.17;;;;;;;-0.44;81.07;98613.56;509046;1102;114550;-62
2021/03/15 03:46:52;;;;;;;19.37;13.67;;;;;;;-0.40;81.12;98603.98;509628;1102;114810;-59
2021/03/15 03:57:01;;;;;;;21.87;15.90;;;;;;;-0.35;81.20;98611.53;509332;1102;114329;-61
2021/03/15 04:07:07;;;;;;;29.17;17.30;;;;;;;-0.24;80.84;98619.73;510899;1102;114285;-61
2021/03/15 04:17:14;;;;;;;39.55;23.55;;;;;;;-0.06;80.67;98630.31;510849;1101;114354;-60
2021/03/15 04:27:20;;;;;;;;;;;;;;;0.01;80.76;98636.09;510755;1102;114265;-62
2021/03/15 04:37:28;;;;;;;26.00;14.33;;;;;;;0.08;79.86;98638.39;510808;1101;101970;-60
2021/03/15 04:47:34;;;;;;;21.65;14.30;;;;;;;0.20;79.94;98636.27;510646;1102;115818;-61
2021/03/15 04:57:39;;;;;;;24.10;15.40;;;;;;;0.33;79.87;98650.40;510737;1102;114142;-61
2021/03/15 05:07:45;;;;;;;29.43;16.50;;;;;;;0.46;79.86;98655.10;511119;1101;114434;-61
2021/03/15 05:17:49;;;;;;;36.60;20.47;;;;;;;0.58;80.05;98661.56;509309;1102;114174;-61
2021/03/15 05:27:52;;;;;;;23.77;15.30;;;;;;;0.64;80.38;98675.08;510787;1102;114414;-61
2021/03/15 05:37:55;;;;;;;48.33;20.10;;;;;;;0.73;79.82;98679.05;510908;1102;115314;-61
2021/03/15 05:48:17;;;;;;;31.37;19.77;;;;;;;0.83;79.94;98672.63;510371;1102;114099;-61
2021/03/15 05:58:59;;;;;;;23.90;17.07;;;;;;;0.87;79.71;98675.94;510150;1102;114200;-62
2021/03/15 06:09:04;;;;;;;54.40;23.53;;;;;;;0.98;79.93;98678.95;510656;1102;114142;-61
2021/03/15 06:19:07;;;;;;;26.83;16.67;;;;;;;1.09;79.31;98686.27;510809;1101;114192;-61
2021/03/15 06:29:11;;;;;;;23.53;16.13;;;;;;;1.15;79.86;98689.53;510763;1102;114087;-61
2021/03/15 06:39:19;;;;;;;21.87;15.93;;;;;;;1.32;79.88;98678.50;510421;1102;114633;-61
2021/03/15 06:49:22;;;;;;;21.20;14.13;;;;;;;1.57;79.31;98673.17;510890;1102;114110;-60
2021/03/15 06:59:46;;;;;;;18.47;12.93;;;;;;;1.87;79.69;98680.52;510548;1102;115023;-60
2021/03/15 07:09:54;;;;;;;16.43;11.47;;;;;;;1.94;78.88;98687.12;510574;1102;114394;-63
2021/03/15 07:20:00;;;;;;;19.23;13.10;;;;;;;2.16;78.94;98680.16;510439;1102;114515;-62
2021/03/15 07:30:34;;;;;;;20.40;14.83;;;;;;;2.28;78.29;98694.33;510268;1101;115155;-60
2021/03/15 07:40:44;;;;;;;21.37;14.10;;;;;;;2.59;78.16;98693.78;505921;1101;10001279;-61
2021/03/15 07:50:59;;;;;;;18.37;14.40;;;;;;;2.86;77.64;98701.19;510211;1101;115340;-61
2021/03/15 08:01:03;;;;;;;18.67;13.17;;;;;;;3.10;76.98;98702.72;510355;1102;115001;-61
2021/03/15 08:11:10;;;;;;;18.23;13.47;;;;;;;3.51;77.50;98692.06;509933;1102;115590;-60
2021/03/15 08:21:21;;;;;;;19.27;13.50;;;;;;;3.94;76.62;98696.88;510559;1102;114147;-67
2021/03/15 08:31:28;;;;;;;18.50;14.20;;;;;;;3.98;75.33;98707.94;509128;1101;114505;-69
2021/03/15 08:41:32;;;;;;;22.80;15.10;;;;;;;4.05;74.86;98706.71;509459;1102;114150;-67
2021/03/15 08:51:44;;;;;;;16.87;11.87;;;;;;;4.27;74.29;98703.00;510254;1102;114237;-67
2021/03/15 09:01:52;;;;;;;27.63;14.40;;;;;;;4.61;73.55;98699.44;510346;1101;114901;-64
2021/03/15 09:11:57;;;;;;;19.03;13.77;;;;;;;5.23;72.62;98694.40;511108;1102;114113;-62
2021/03/15 09:22:04;;;;;;;17.77;12.80;;;;;;;5.74;71.97;98688.89;510470;1102;114115;-67
2021/03/15 09:32:09;;;;;;;19.13;14.70;;;;;;;6.23;71.01;98690.34;510776;1101;114110;-66
2021/03/15 09:42:18;;;;;;;17.53;14.27;;;;;;;7.10;69.97;98678.92;510738;1102;114154;-66
2021/03/15 09:52:23;;;;;;;16.13;12.37;;;;;;;7.94;68.53;98674.29;510893;1102;115328;-71
2021/03/15 10:02:29;;;;;;;17.37;12.90;;;;;;;8.27;67.17;98666.87;510858;1102;114280;-66
2021/03/15 10:12:34;;;;;;;19.73;13.63;;;;;;;9.45;66.20;98660.28;510796;1102;114704;-73
2021/03/15 10:22:37;;;;;;;13.83;11.37;;;;;;;9.98;64.07;98665.05;512184;1101;114420;-62
2021/03/15 10:32:46;;;;;;;14.57;10.67;;;;;;;9.37;63.29;98661.70;511027;1102;114321;-64
2021/03/15 10:42:51;;;;;;;22.03;13.67;;;;;;;8.93;62.38;98650.08;511313;1102;114528;-69
2021/03/15 10:53:09;;;;;;;13.03;9.97;;;;;;;8.50;62.44;98631.27;511442;1101;114450;-60
2021/03/15 11:03:22;;;;;;;13.20;10.27;;;;;;;8.42;62.65;98628.31;510886;1102;114993;-65
2021/03/15 11:13:26;;;;;;;19.80;11.47;;;;;;;8.40;62.00;98617.98;510524;1102;115618;-65
2021/03/15 11:23:33;;;;;;;15.83;9.50;;;;;;;7.75;61.94;98611.16;510655;1102;114219;-63
2021/03/15 11:33:36;;;;;;;12.83;9.27;;;;;;;7.68;61.45;98603.73;510538;1102;114037;-62
2021/03/15 11:43:44;;;;;;;15.00;9.80;;;;;;;7.41;62.00;98602.05;511189;1102;113928;-69
2021/03/15 11:53:47;;;;;;;17.48;10.13;;;;;;;7.87;61.69;98597.25;511137;1102;113911;-67
2021/03/15 12:03:50;;;;;;;11.93;9.70;;;;;;;8.05;61.14;98591.67;510990;1102;114365;-65
2021/03/15 12:13:56;;;;;;;13.70;10.20;;;;;;;8.10;60.43;98582.57;510918;1102;114198;-68
2021/03/15 12:24:01;;;;;;;16.27;9.43;;;;;;;8.28;60.64;98579.61;510869;1102;114074;-68
2021/03/15 12:34:05;;;;;;;11.17;8.90;;;;;;;8.58;59.37;98572.33;511010;1102;115259;-66
2021/03/15 12:44:08;;;;;;;11.40;8.40;;;;;;;8.59;60.06;98566.97;511042;1101;114375;-62
2021/03/15 12:54:15;;;;;;;10.05;8.35;;;;;;;8.31;59.57;98566.31;510954;1101;113939;-66
2021/03/15 13:04:19;;;;;;;12.53;8.33;;;;;;;7.89;60.11;98579.69;502056;1101;10001952;-63
2021/03/15 13:14:26;;;;;;;9.07;8.07;;;;;;;7.56;60.65;98581.90;510614;1102;114789;-62
2021/03/15 13:24:30;;;;;;;12.40;7.23;;;;;;;7.20;61.36;98587.80;510749;1101;113788;-63
2021/03/15 13:34:33;;;;;;;13.63;7.53;;;;;;;7.21;61.96;98581.64;510391;1102;114002;-63
2021/03/15 13:44:37;;;;;;;13.60;7.47;;;;;;;7.46;61.61;98579.99;510315;1102;114869;-63
2021/03/15 13:54:42;;;;;;;19.73;7.87;;;;;;;7.43;60.38;98584.49;510401;1101;114881;-63
2021/03/15 14:04:49;;;;;;;14.43;7.57;;;;;;;7.07;60.57;98582.55;510265;1101;115217;-64
2021/03/15 14:14:52;;;;;;;8.87;6.40;;;;;;;6.81;61.12;98591.16;510412;1102;113904;-63
2021/03/15 14:24:59;;;;;;;10.13;6.50;;;;;;;6.77;61.86;98594.88;510576;1102;113873;-62
2021/03/15 14:35:04;;;;;;;17.53;7.13;;;;;;;6.97;61.76;98584.94;510531;1102;113912;-63
2021/03/15 14:45:13;;;;;;;12.73;5.95;;;;;;;7.20;61.51;98583.40;510901;1102;113964;-62
2021/03/15 14:55:22;;;;;;;8.50;6.47;;;;;;;7.49;61.28;98577.17;511215;1101;114496;-63
2021/03/15 15:05:26;;;;;;;8.53;6.43;;;;;;;7.61;60.41;98570.29;510974;1101;113768;-62
2021/03/15 15:15:33;;;;;;;16.47;8.67;;;;;;;7.24;60.99;98569.23;510937;1102;113806;-64
2021/03/15 15:25:47;;;;;;;8.93;7.17;;;;;;;6.87;60.59;98579.48;511150;1102;114215;-65
2021/03/15 15:35:51;;;;;;;9.43;6.00;;;;;;;6.44;60.86;98565.65;510810;1102;114331;-66
2021/03/15 15:45:55;;;;;;;10.20;6.65;;;;;;;6.17;60.88;98578.64;510570;1101;114129;-66
2021/03/15 15:56:11;;;;;;;8.37;5.93;;;;;;;5.83;61.80;98581.53;510740;1102;114243;-65
2021/03/15 16:06:18;;;;;;;14.67;9.53;;;;;;;5.45;61.79;98587.25;510749;1102;113853;-67
2021/03/15 16:16:23;;;;;;;18.85;10.50;;;;;;;5.06;62.97;98597.28;510524;1102;114314;-64
2021/03/15 16:26:38;;;;;;;17.80;10.77;;;;;;;4.65;63.05;98601.30;511077;1102;114429;-68
2021/03/15 16:36:41;;;;;;;22.93;11.30;;;;;;;4.32;63.66;98610.88;510910;1102;114253;-63
2021/03/15 16:46:44;;;;;;;30.33;20.40;;;;;;;3.97;64.22;98605.80;511089;1102;114352;-62
2021/03/15 16:56:55;;;;;;;34.17;21.60;;;;;;;3.65;64.97;98605.72;511028;1102;114515;-64
2021/03/15 17:06:58;;;;;;;44.27;27.63;;;;;;;3.41;65.95;98600.03;520431;1102;114550;-63
2021/03/15 17:17:01;;;;;;;33.30;19.77;;;;;;;3.14;66.00;98609.11;510671;1102;115478;-64
2021/03/15 17:27:08;;;;;;;;;;;;;;;2.85;66.88;98620.91;511124;1102;114896;-71
2021/03/15 17:37:17;;;;;;;38.77;24.50;;;;;;;2.70;67.14;98623.29;511286;1102;99836;-65
2021/03/15 17:47:20;;;;;;;43.93;25.87;;;;;;;2.47;67.74;98619.20;511073;1101;114311;-67
2021/03/15 17:57:24;;;;;;;46.48;29.70;;;;;;;2.25;68.35;98635.72;493777;1102;20001754;-68
2021/03/15 18:07:30;;;;;;;61.13;33.47;;;;;;;2.05;68.74;98632.27;510059;1102;114901;-67
2021/03/15 18:17:35;;;;;;;62.87;34.43;;;;;;;1.91;69.79;98643.25;510471;1102;114593;-69
2021/03/15 18:27:43;;;;;;;59.70;37.27;;;;;;;1.77;69.79;98643.84;510547;1102;114064;-68
2021/03/15 18:37:48;;;;;;;;;;;;;;;1.60;70.95;98647.16;509816;1102;114451;-64
2021/03/15 18:47:52;;;;;;;57.17;35.10;;;;;;;1.41;70.46;98660.02;510063;1102;99865;-64
2021/03/15 18:58:02;;;;;;;58.50;35.65;;;;;;;1.37;72.13;98658.45;510056;1102;113860;-64
2021/03/15 19:08:06;;;;;;;54.27;32.67;;;;;;;1.25;71.92;98652.05;510742;1102;114601;-62
2021/03/15 19:18:10;;;;;;;49.00;29.47;;;;;;;1.13;72.68;98657.72;509814;1102;114431;-62
2021/03/15 19:28:14;;;;;;;41.17;26.53;;;;;;;1.09;73.20;98663.00;510653;1102;114571;-62
2021/03/15 19:38:17;;;;;;;43.53;28.67;;;;;;;1.17;73.04;98654.95;511097;1102;114113;-63
2021/03/15 19:48:24;;;;;;;50.03;31.07;;;;;;;1.32;73.47;98663.81;511200;1102;114143;-64
2021/03/15 19:58:27;;;;;;;41.53;26.77;;;;;;;1.47;73.68;98667.52;510933;1102;114132;-63
2021/03/15 20:08:30;;;;;;;40.83;25.90;;;;;;;1.58;73.45;98667.09;511212;1101;114634;-64
2021/03/15 20:18:34;;;;;;;43.45;26.20;;;;;;;1.74;73.42;98669.88;511075;1102;114142;-63
2021/03/15 20:28:37;;;;;;;44.60;28.60;;;;;;;1.85;73.12;98666.80;511070;1101;114082;-64
2021/03/15 20:38:42;;;;;;;46.57;30.13;;;;;;;1.89;73.07;98667.52;502294;1101;10001071;-64
2021/03/15 20:48:49;;;;;;;43.43;28.00;;;;;;;1.98;72.53;98677.48;510705;1102;114668;-68
2021/03/15 20:58:52;;;;;;;48.60;31.48;;;;;;;2.00;72.75;98682.58;510276;1102;114116;-67
2021/03/15 21:08:55;;;;;;;45.65;28.35;;;;;;;1.99;72.99;98691.26;510623;1102;114740;-68
2021/03/15 21:18:59;;;;;;;45.53;32.53;;;;;;;1.98;72.84;98694.76;510323;1101;114542;-65
2021/03/15 21:29:02;;;;;;;61.15;36.60;;;;;;;1.99;72.90;98694.70;511022;1102;114387;-68
2021/03/15 21:39:09;;;;;;;45.30;28.65;;;;;;;1.98;73.33;98680.08;510722;1102;114316;-63
2021/03/15 21:49:13;;;;;;;45.30;31.33;;;;;;;1.98;73.50;98682.66;511398;1102;114591;-60
2021/03/15 21:59:16;;;;;;;54.00;32.67;;;;;;;2.06;73.18;98684.91;511360;1101;114156;-61
2021/03/15 22:09:23;;;;;;;58.57;35.67;;;;;;;2.03;73.09;98680.70;510895;1102;114569;-69
2021/03/15 22:19:27;;;;;;;52.87;33.80;;;;;;;2.08;73.32;98690.86;510190;1102;114076;-68
2021/03/15 22:29:31;;;;;;;53.43;35.70;;;;;;;2.08;73.35;98683.95;510539;1102;114495;-69
2021/03/15 22:39:38;;;;;;;53.67;33.40;;;;;;;2.09;73.85;98698.58;510556;1102;114906;-70
2021/03/15 22:49:41;;;;;;;53.30;33.83;;;;;;;2.07;73.83;98692.59;510990;1102;114412;-69
2021/03/15 22:59:51;;;;;;;50.47;33.80;;;;;;;2.12;73.58;98673.45;510741;1102;114135;-69
2021/03/15 23:09:54;;;;;;;47.10;30.50;;;;;;;2.13;73.98;98675.95;510616;1102;114046;-70
2021/03/15 23:19:57;;;;;;;45.90;31.17;;;;;;;2.12;74.43;98684.63;510610;1102;114161;-70
2021/03/15 23:30:05;;;;;;;41.40;26.67;;;;;;;2.13;74.45;98681.13;510259;1102;114133;-69
2021/03/15 23:40:11;;;;;;;40.93;26.60;;;;;;;2.15;74.49;98684.52;510391;1101;114418;-69
2021/03/15 23:50:15;;;;;;;39.20;26.23;;;;;;;2.13;74.26;98691.48;510695;1102;114133;-69
